sensor_id;sensor_type;location;lat;lon;timestamp;P1;durP1;ratioP1;P2;durP2;ratioP2
26163;SDS011;13914;48.178;11.716;2022-09-16T00:00:23;9.25;;;2.35;;
26163;SDS011;13914;48.178;11.716;2022-09-16T00:02:52;5.82;;;2.22;;
26163;SDS011;13914;48.178;11.716;2022-09-16T00:05:19;6.60;;;1.92;;
26163;SDS011;13914;48.178;11.716;2022-09-16T00:07:45;16.85;;;2.50;;
26163;SDS011;13914;48.178;11.716;2022-09-16T00:10:11;13.85;;;2.80;;
26163;SDS011;13914;48.178;11.716;2022-09-16T00:12:40;13.05;;;2.90;;
26163;SDS011;13914;48.178;11.716;2022-09-16T00:15:06;8.10;;;2.25;;
26163;SDS011;13914;48.178;11.716;2022-09-16T00:17:33;7.97;;;2.20;;
26163;SDS011;13914;48.178;11.716;2022-09-16T00:19:58;7.30;;;2.70;;
26163;SDS011;13914;48.178;11.716;2022-09-16T00:22:26;13.05;;;2.00;;
26163;SDS011;13914;48.178;11.716;2022-09-16T00:24:52;10.98;;;2.28;;
26163;SDS011;13914;48.178;11.716;2022-09-16T00:27:18;7.78;;;2.47;;
26163;SDS011;13914;48.178;11.716;2022-09-16T00:29:44;10.13;;;2.25;;
26163;SDS011;13914;48.178;11.716;2022-09-16T00:32:10;9.40;;;2.53;;
26163;SDS011;13914;48.178;11.716;2022-09-16T00:34:36;5.70;;;3.40;;
26163;SDS011;13914;48.178;11.716;2022-09-16T00:37:01;13.27;;;3.00;;
26163;SDS011;13914;48.178;11.716;2022-09-16T00:39:28;5.35;;;2.20;;
26163;SDS011;13914;48.178;11.716;2022-09-16T00:41:54;7.90;;;2.13;;
26163;SDS011;13914;48.178;11.716;2022-09-16T00:47:31;8.27;;;2.22;;
26163;SDS011;13914;48.178;11.716;2022-09-16T00:50:03;9.20;;;2.13;;
26163;SDS011;13914;48.178;11.716;2022-09-16T00:52:45;8.95;;;2.67;;
26163;SDS011;13914;48.178;11.716;2022-09-16T00:55:15;3.42;;;2.42;;
26163;SDS011;13914;48.178;11.716;2022-09-16T00:57:45;7.50;;;1.90;;
26163;SDS011;13914;48.178;11.716;2022-09-16T01:05:07;5.40;;;2.08;;
26163;SDS011;13914;48.178;11.716;2022-09-16T01:07:46;10.85;;;2.20;;
26163;SDS011;13914;48.178;11.716;2022-09-16T01:10:14;8.18;;;2.60;;
26163;SDS011;13914;48.178;11.716;2022-09-16T01:12:50;5.38;;;2.33;;
26163;SDS011;13914;48.178;11.716;2022-09-16T01:15:21;7.45;;;2.40;;
26163;SDS011;13914;48.178;11.716;2022-09-16T01:18:02;4.05;;;2.47;;
26163;SDS011;13914;48.178;11.716;2022-09-16T01:20:54;7.60;;;2.70;;
26163;SDS011;13914;48.178;11.716;2022-09-16T01:29:34;4.32;;;1.70;;
26163;SDS011;13914;48.178;11.716;2022-09-16T01:43:23;5.45;;;1.85;;
26163;SDS011;13914;48.178;11.716;2022-09-16T01:46:21;6.60;;;2.45;;
26163;SDS011;13914;48.178;11.716;2022-09-16T01:49:14;17.42;;;2.65;;
26163;SDS011;13914;48.178;11.716;2022-09-16T01:54:56;6.22;;;1.98;;
26163;SDS011;13914;48.178;11.716;2022-09-16T01:57:50;6.00;;;2.33;;
26163;SDS011;13914;48.178;11.716;2022-09-16T02:00:32;16.10;;;2.13;;
26163;SDS011;13914;48.178;11.716;2022-09-16T02:03:12;2.95;;;2.15;;
26163;SDS011;13914;48.178;11.716;2022-09-16T02:05:52;11.07;;;2.38;;
26163;SDS011;13914;48.178;11.716;2022-09-16T02:08:33;9.30;;;2.47;;
26163;SDS011;13914;48.178;11.716;2022-09-16T02:11:21;6.90;;;2.90;;
26163;SDS011;13914;48.178;11.716;2022-09-16T02:13:52;4.85;;;2.80;;
26163;SDS011;13914;48.178;11.716;2022-09-16T02:16:29;9.77;;;1.70;;
26163;SDS011;13914;48.178;11.716;2022-09-16T02:19:22;10.13;;;2.00;;
26163;SDS011;13914;48.178;11.716;2022-09-16T02:22:04;3.72;;;1.73;;
26163;SDS011;13914;48.178;11.716;2022-09-16T02:24:34;12.18;;;1.83;;
26163;SDS011;13914;48.178;11.716;2022-09-16T02:27:04;4.82;;;2.30;;
26163;SDS011;13914;48.178;11.716;2022-09-16T02:29:40;4.60;;;1.40;;
26163;SDS011;13914;48.178;11.716;2022-09-16T02:32:15;4.55;;;2.97;;
26163;SDS011;13914;48.178;11.716;2022-09-16T02:34:45;12.65;;;1.95;;
26163;SDS011;13914;48.178;11.716;2022-09-16T02:37:17;6.80;;;2.53;;
26163;SDS011;13914;48.178;11.716;2022-09-16T02:40:21;4.80;;;2.55;;
26163;SDS011;13914;48.178;11.716;2022-09-16T02:42:58;5.23;;;2.97;;
26163;SDS011;13914;48.178;11.716;2022-09-16T02:45:25;5.07;;;2.35;;
26163;SDS011;13914;48.178;11.716;2022-09-16T02:48:22;7.88;;;3.20;;
26163;SDS011;13914;48.178;11.716;2022-09-16T02:51:09;6.80;;;3.20;;
26163;SDS011;13914;48.178;11.716;2022-09-16T02:56:56;5.70;;;2.60;;
26163;SDS011;13914;48.178;11.716;2022-09-16T02:59:22;9.90;;;2.67;;
26163;SDS011;13914;48.178;11.716;2022-09-16T03:01:49;8.38;;;3.08;;
26163;SDS011;13914;48.178;11.716;2022-09-16T03:04:16;6.10;;;3.35;;
26163;SDS011;13914;48.178;11.716;2022-09-16T03:06:44;3.67;;;2.35;;
26163;SDS011;13914;48.178;11.716;2022-09-16T03:09:11;6.28;;;2.95;;
26163;SDS011;13914;48.178;11.716;2022-09-16T03:14:49;6.15;;;3.30;;
26163;SDS011;13914;48.178;11.716;2022-09-16T03:17:45;9.00;;;2.30;;
26163;SDS011;13914;48.178;11.716;2022-09-16T03:20:40;5.75;;;2.97;;
26163;SDS011;13914;48.178;11.716;2022-09-16T03:27:00;10.63;;;3.22;;
26163;SDS011;13914;48.178;11.716;2022-09-16T03:29:54;4.53;;;2.88;;
26163;SDS011;13914;48.178;11.716;2022-09-16T03:35:30;7.70;;;3.47;;
26163;SDS011;13914;48.178;11.716;2022-09-16T03:38:03;9.38;;;3.10;;
26163;SDS011;13914;48.178;11.716;2022-09-16T03:40:31;7.65;;;2.85;;
26163;SDS011;13914;48.178;11.716;2022-09-16T03:42:58;2.75;;;1.85;;
26163;SDS011;13914;48.178;11.716;2022-09-16T03:45:23;5.27;;;2.50;;
26163;SDS011;13914;48.178;11.716;2022-09-16T03:47:50;10.13;;;3.15;;
26163;SDS011;13914;48.178;11.716;2022-09-16T03:50:18;4.03;;;2.60;;
26163;SDS011;13914;48.178;11.716;2022-09-16T03:52:45;5.78;;;2.63;;
26163;SDS011;13914;48.178;11.716;2022-09-16T03:55:11;5.63;;;3.40;;
26163;SDS011;13914;48.178;11.716;2022-09-16T03:57:37;11.52;;;2.83;;
26163;SDS011;13914;48.178;11.716;2022-09-16T04:00:04;4.57;;;1.73;;
26163;SDS011;13914;48.178;11.716;2022-09-16T04:02:32;8.85;;;3.22;;
26163;SDS011;13914;48.178;11.716;2022-09-16T04:04:58;5.82;;;2.47;;
26163;SDS011;13914;48.178;11.716;2022-09-16T04:07:23;10.45;;;3.17;;
26163;SDS011;13914;48.178;11.716;2022-09-16T04:09:49;5.67;;;3.27;;
26163;SDS011;13914;48.178;11.716;2022-09-16T04:12:15;6.77;;;2.87;;
26163;SDS011;13914;48.178;11.716;2022-09-16T04:14:41;4.77;;;3.00;;
26163;SDS011;13914;48.178;11.716;2022-09-16T04:17:06;5.05;;;3.05;;
26163;SDS011;13914;48.178;11.716;2022-09-16T04:19:32;9.23;;;3.72;;
26163;SDS011;13914;48.178;11.716;2022-09-16T04:21:58;12.43;;;2.80;;
26163;SDS011;13914;48.178;11.716;2022-09-16T04:24:24;4.88;;;3.42;;
26163;SDS011;13914;48.178;11.716;2022-09-16T04:26:49;5.40;;;2.83;;
26163;SDS011;13914;48.178;11.716;2022-09-16T04:29:15;5.20;;;3.75;;
26163;SDS011;13914;48.178;11.716;2022-09-16T04:31:41;5.75;;;3.45;;
26163;SDS011;13914;48.178;11.716;2022-09-16T04:36:35;6.65;;;3.20;;
26163;SDS011;13914;48.178;11.716;2022-09-16T04:39:03;7.90;;;3.13;;
26163;SDS011;13914;48.178;11.716;2022-09-16T04:41:29;4.53;;;3.08;;
26163;SDS011;13914;48.178;11.716;2022-09-16T04:43:55;5.35;;;3.65;;
26163;SDS011;13914;48.178;11.716;2022-09-16T04:46:25;7.65;;;3.90;;
26163;SDS011;13914;48.178;11.716;2022-09-16T04:48:53;5.50;;;2.92;;
26163;SDS011;13914;48.178;11.716;2022-09-16T04:51:20;8.90;;;3.42;;
26163;SDS011;13914;48.178;11.716;2022-09-16T04:53:47;9.15;;;3.58;;
26163;SDS011;13914;48.178;11.716;2022-09-16T04:56:18;5.25;;;2.95;;
26163;SDS011;13914;48.178;11.716;2022-09-16T04:58:53;5.68;;;3.33;;
26163;SDS011;13914;48.178;11.716;2022-09-16T05:01:22;6.05;;;3.70;;
26163;SDS011;13914;48.178;11.716;2022-09-16T05:03:52;9.48;;;3.67;;
26163;SDS011;13914;48.178;11.716;2022-09-16T05:06:21;10.27;;;5.85;;
26163;SDS011;13914;48.178;11.716;2022-09-16T05:08:50;5.78;;;3.60;;
26163;SDS011;13914;48.178;11.716;2022-09-16T05:11:21;7.18;;;3.22;;
26163;SDS011;13914;48.178;11.716;2022-09-16T05:13:51;6.57;;;4.10;;
26163;SDS011;13914;48.178;11.716;2022-09-16T05:16:19;6.50;;;4.80;;
26163;SDS011;13914;48.178;11.716;2022-09-16T05:18:47;8.07;;;3.53;;
26163;SDS011;13914;48.178;11.716;2022-09-16T05:21:16;8.57;;;4.28;;
26163;SDS011;13914;48.178;11.716;2022-09-16T05:23:44;8.40;;;5.10;;
26163;SDS011;13914;48.178;11.716;2022-09-16T05:26:13;9.23;;;4.30;;
26163;SDS011;13914;48.178;11.716;2022-09-16T05:28:40;9.07;;;3.67;;
26163;SDS011;13914;48.178;11.716;2022-09-16T05:31:11;10.45;;;3.83;;
26163;SDS011;13914;48.178;11.716;2022-09-16T05:33:42;7.93;;;4.45;;
26163;SDS011;13914;48.178;11.716;2022-09-16T05:36:12;5.70;;;2.83;;
26163;SDS011;13914;48.178;11.716;2022-09-16T05:38:40;7.38;;;2.83;;
26163;SDS011;13914;48.178;11.716;2022-09-16T05:41:07;7.60;;;4.75;;
26163;SDS011;13914;48.178;11.716;2022-09-16T05:43:33;5.47;;;3.65;;
26163;SDS011;13914;48.178;11.716;2022-09-16T05:46:00;6.90;;;3.47;;
26163;SDS011;13914;48.178;11.716;2022-09-16T05:48:26;8.27;;;5.00;;
26163;SDS011;13914;48.178;11.716;2022-09-16T05:50:53;12.85;;;5.53;;
26163;SDS011;13914;48.178;11.716;2022-09-16T05:53:22;6.63;;;3.55;;
26163;SDS011;13914;48.178;11.716;2022-09-16T05:55:53;9.45;;;5.10;;
26163;SDS011;13914;48.178;11.716;2022-09-16T05:58:31;9.25;;;3.13;;
26163;SDS011;13914;48.178;11.716;2022-09-16T06:00:59;6.68;;;3.30;;
26163;SDS011;13914;48.178;11.716;2022-09-16T06:03:44;6.95;;;4.30;;
26163;SDS011;13914;48.178;11.716;2022-09-16T06:06:24;8.27;;;5.07;;
26163;SDS011;13914;48.178;11.716;2022-09-16T06:08:52;8.45;;;5.47;;
26163;SDS011;13914;48.178;11.716;2022-09-16T06:11:21;13.38;;;5.70;;
26163;SDS011;13914;48.178;11.716;2022-09-16T06:13:52;8.25;;;5.00;;
26163;SDS011;13914;48.178;11.716;2022-09-16T06:16:24;10.57;;;4.55;;
26163;SDS011;13914;48.178;11.716;2022-09-16T06:18:52;12.80;;;6.45;;
26163;SDS011;13914;48.178;11.716;2022-09-16T06:21:19;8.10;;;3.75;;
26163;SDS011;13914;48.178;11.716;2022-09-16T06:23:46;13.23;;;4.43;;
26163;SDS011;13914;48.178;11.716;2022-09-16T06:26:13;10.27;;;6.45;;
26163;SDS011;13914;48.178;11.716;2022-09-16T06:28:41;10.43;;;5.43;;
26163;SDS011;13914;48.178;11.716;2022-09-16T06:31:09;8.95;;;5.05;;
26163;SDS011;13914;48.178;11.716;2022-09-16T06:33:38;10.32;;;6.07;;
26163;SDS011;13914;48.178;11.716;2022-09-16T06:38:37;8.45;;;5.05;;
26163;SDS011;13914;48.178;11.716;2022-09-16T06:41:05;6.78;;;4.40;;
26163;SDS011;13914;48.178;11.716;2022-09-16T06:43:33;6.97;;;4.15;;
26163;SDS011;13914;48.178;11.716;2022-09-16T06:48:27;9.82;;;3.88;;
26163;SDS011;13914;48.178;11.716;2022-09-16T06:50:58;14.60;;;6.70;;
26163;SDS011;13914;48.178;11.716;2022-09-16T06:53:25;16.65;;;6.15;;
26163;SDS011;13914;48.178;11.716;2022-09-16T06:55:52;6.45;;;3.40;;
26163;SDS011;13914;48.178;11.716;2022-09-16T06:58:18;5.95;;;4.13;;
26163;SDS011;13914;48.178;11.716;2022-09-16T07:00:43;6.93;;;4.20;;
26163;SDS011;13914;48.178;11.716;2022-09-16T07:03:09;7.82;;;4.38;;
26163;SDS011;13914;48.178;11.716;2022-09-16T07:05:35;7.40;;;4.78;;
26163;SDS011;13914;48.178;11.716;2022-09-16T07:08:01;13.07;;;6.78;;
26163;SDS011;13914;48.178;11.716;2022-09-16T07:10:27;9.70;;;5.50;;
26163;SDS011;13914;48.178;11.716;2022-09-16T07:12:54;13.38;;;6.35;;
26163;SDS011;13914;48.178;11.716;2022-09-16T07:15:20;11.10;;;5.80;;
26163;SDS011;13914;48.178;11.716;2022-09-16T07:17:46;10.15;;;5.78;;
26163;SDS011;13914;48.178;11.716;2022-09-16T07:20:12;7.50;;;4.15;;
26163;SDS011;13914;48.178;11.716;2022-09-16T07:22:37;11.48;;;4.88;;
26163;SDS011;13914;48.178;11.716;2022-09-16T07:25:03;6.70;;;4.13;;
26163;SDS011;13914;48.178;11.716;2022-09-16T07:27:30;7.53;;;4.55;;
26163;SDS011;13914;48.178;11.716;2022-09-16T07:29:56;8.68;;;5.95;;
26163;SDS011;13914;48.178;11.716;2022-09-16T07:32:21;8.25;;;4.53;;
26163;SDS011;13914;48.178;11.716;2022-09-16T07:34:47;9.48;;;5.30;;
26163;SDS011;13914;48.178;11.716;2022-09-16T07:37:13;6.20;;;4.38;;
26163;SDS011;13914;48.178;11.716;2022-09-16T07:39:39;7.57;;;4.03;;
26163;SDS011;13914;48.178;11.716;2022-09-16T07:42:05;6.75;;;3.30;;
26163;SDS011;13914;48.178;11.716;2022-09-16T07:44:31;7.25;;;4.43;;
26163;SDS011;13914;48.178;11.716;2022-09-16T07:46:56;9.75;;;6.55;;
26163;SDS011;13914;48.178;11.716;2022-09-16T07:49:22;7.75;;;3.90;;
26163;SDS011;13914;48.178;11.716;2022-09-16T07:51:48;9.70;;;5.10;;
26163;SDS011;13914;48.178;11.716;2022-09-16T07:54:15;9.35;;;4.65;;
26163;SDS011;13914;48.178;11.716;2022-09-16T07:56:42;8.45;;;5.38;;
26163;SDS011;13914;48.178;11.716;2022-09-16T07:59:10;8.25;;;5.38;;
26163;SDS011;13914;48.178;11.716;2022-09-16T08:01:39;13.82;;;6.22;;
26163;SDS011;13914;48.178;11.716;2022-09-16T08:04:05;9.93;;;4.38;;
26163;SDS011;13914;48.178;11.716;2022-09-16T08:06:31;8.65;;;4.78;;
26163;SDS011;13914;48.178;11.716;2022-09-16T08:08:58;11.98;;;5.18;;
26163;SDS011;13914;48.178;11.716;2022-09-16T08:11:28;13.40;;;7.07;;
26163;SDS011;13914;48.178;11.716;2022-09-16T08:13:56;8.65;;;5.72;;
26163;SDS011;13914;48.178;11.716;2022-09-16T08:16:23;14.63;;;5.82;;
26163;SDS011;13914;48.178;11.716;2022-09-16T08:18:50;11.98;;;7.30;;
26163;SDS011;13914;48.178;11.716;2022-09-16T08:21:19;9.15;;;4.65;;
26163;SDS011;13914;48.178;11.716;2022-09-16T08:23:48;9.63;;;5.80;;
26163;SDS011;13914;48.178;11.716;2022-09-16T08:28:42;20.45;;;8.35;;
26163;SDS011;13914;48.178;11.716;2022-09-16T08:31:09;11.52;;;6.78;;
26163;SDS011;13914;48.178;11.716;2022-09-16T08:33:37;16.88;;;7.80;;
26163;SDS011;13914;48.178;11.716;2022-09-16T08:36:05;9.93;;;6.32;;
26163;SDS011;13914;48.178;11.716;2022-09-16T08:38:39;12.38;;;7.35;;
26163;SDS011;13914;48.178;11.716;2022-09-16T08:41:30;11.57;;;4.60;;
26163;SDS011;13914;48.178;11.716;2022-09-16T08:49:51;9.85;;;6.88;;
26163;SDS011;13914;48.178;11.716;2022-09-16T08:52:36;14.52;;;6.43;;
26163;SDS011;13914;48.178;11.716;2022-09-16T08:55:07;13.95;;;7.32;;
26163;SDS011;13914;48.178;11.716;2022-09-16T08:58:28;10.68;;;7.28;;
26163;SDS011;13914;48.178;11.716;2022-09-16T09:00:45;14.35;;;7.22;;
26163;SDS011;13914;48.178;11.716;2022-09-16T09:03:36;10.85;;;6.57;;
26163;SDS011;13914;48.178;11.716;2022-09-16T09:06:16;10.10;;;6.28;;
26163;SDS011;13914;48.178;11.716;2022-09-16T09:14:54;9.40;;;6.72;;
26163;SDS011;13914;48.178;11.716;2022-09-16T09:28:57;9.40;;;5.72;;
26163;SDS011;13914;48.178;11.716;2022-09-16T09:31:55;10.80;;;5.97;;
26163;SDS011;13914;48.178;11.716;2022-09-16T09:40:22;8.73;;;6.20;;
26163;SDS011;13914;48.178;11.716;2022-09-16T09:43:13;15.77;;;6.72;;
26163;SDS011;13914;48.178;11.716;2022-09-16T09:45:56;12.23;;;7.43;;
26163;SDS011;13914;48.178;11.716;2022-09-16T09:48:28;11.80;;;6.80;;
26163;SDS011;13914;48.178;11.716;2022-09-16T09:51:09;11.27;;;6.15;;
26163;SDS011;13914;48.178;11.716;2022-09-16T09:53:54;12.10;;;7.47;;
26163;SDS011;13914;48.178;11.716;2022-09-16T09:56:32;11.48;;;7.82;;
26163;SDS011;13914;48.178;11.716;2022-09-16T10:02:16;15.38;;;8.38;;
26163;SDS011;13914;48.178;11.716;2022-09-16T10:04:44;16.65;;;7.90;;
26163;SDS011;13914;48.178;11.716;2022-09-16T10:09:44;16.55;;;9.73;;
26163;SDS011;13914;48.178;11.716;2022-09-16T10:12:26;16.23;;;9.32;;
26163;SDS011;13914;48.178;11.716;2022-09-16T10:14:52;17.80;;;10.38;;
26163;SDS011;13914;48.178;11.716;2022-09-16T10:17:18;17.88;;;9.95;;
26163;SDS011;13914;48.178;11.716;2022-09-16T10:19:53;12.85;;;9.02;;
26163;SDS011;13914;48.178;11.716;2022-09-16T10:22:53;14.60;;;9.90;;
26163;SDS011;13914;48.178;11.716;2022-09-16T10:25:33;19.08;;;10.73;;
26163;SDS011;13914;48.178;11.716;2022-09-16T10:30:28;16.25;;;9.93;;
26163;SDS011;13914;48.178;11.716;2022-09-16T10:33:01;16.73;;;11.30;;
26163;SDS011;13914;48.178;11.716;2022-09-16T10:35:36;14.02;;;9.45;;
26163;SDS011;13914;48.178;11.716;2022-09-16T10:38:05;14.63;;;10.20;;
26163;SDS011;13914;48.178;11.716;2022-09-16T10:40:56;16.05;;;9.75;;
26163;SDS011;13914;48.178;11.716;2022-09-16T10:43:32;17.70;;;9.35;;
26163;SDS011;13914;48.178;11.716;2022-09-16T10:45:58;16.27;;;10.23;;
26163;SDS011;13914;48.178;11.716;2022-09-16T10:48:28;13.32;;;8.77;;
26163;SDS011;13914;48.178;11.716;2022-09-16T10:50:59;19.58;;;10.18;;
26163;SDS011;13914;48.178;11.716;2022-09-16T10:53:30;14.20;;;8.35;;
26163;SDS011;13914;48.178;11.716;2022-09-16T10:56:02;15.18;;;8.93;;
26163;SDS011;13914;48.178;11.716;2022-09-16T10:58:31;12.80;;;8.25;;
26163;SDS011;13914;48.178;11.716;2022-09-16T11:01:02;13.38;;;7.60;;
26163;SDS011;13914;48.178;11.716;2022-09-16T11:15:23;10.55;;;6.15;;
26163;SDS011;13914;48.178;11.716;2022-09-16T11:18:28;9.43;;;4.90;;
26163;SDS011;13914;48.178;11.716;2022-09-16T11:24:10;10.90;;;5.53;;
26163;SDS011;13914;48.178;11.716;2022-09-16T11:27:11;15.95;;;5.65;;
26163;SDS011;13914;48.178;11.716;2022-09-16T11:30:11;9.73;;;5.55;;
26163;SDS011;13914;48.178;11.716;2022-09-16T11:35:58;6.82;;;4.13;;
26163;SDS011;13914;48.178;11.716;2022-09-16T11:41:54;8.68;;;5.20;;
26163;SDS011;13914;48.178;11.716;2022-09-16T11:44:43;9.07;;;5.30;;
26163;SDS011;13914;48.178;11.716;2022-09-16T11:47:47;6.00;;;4.07;;
26163;SDS011;13914;48.178;11.716;2022-09-16T11:50:40;8.57;;;3.97;;
26163;SDS011;13914;48.178;11.716;2022-09-16T11:53:35;6.88;;;3.65;;
26163;SDS011;13914;48.178;11.716;2022-09-16T12:01:56;9.30;;;4.13;;
26163;SDS011;13914;48.178;11.716;2022-09-16T12:04:40;6.43;;;3.75;;
26163;SDS011;13914;48.178;11.716;2022-09-16T12:07:29;8.67;;;4.20;;
26163;SDS011;13914;48.178;11.716;2022-09-16T12:10:20;11.50;;;3.63;;
26163;SDS011;13914;48.178;11.716;2022-09-16T12:12:56;8.15;;;3.60;;
26163;SDS011;13914;48.178;11.716;2022-09-16T12:15:46;5.07;;;2.90;;
26163;SDS011;13914;48.178;11.716;2022-09-16T12:18:26;5.10;;;3.22;;
26163;SDS011;13914;48.178;11.716;2022-09-16T12:21:09;5.72;;;3.13;;
26163;SDS011;13914;48.178;11.716;2022-09-16T12:23:56;6.97;;;3.13;;
26163;SDS011;13914;48.178;11.716;2022-09-16T12:35:31;8.05;;;3.25;;
26163;SDS011;13914;48.178;11.716;2022-09-16T12:38:04;7.43;;;2.90;;
26163;SDS011;13914;48.178;11.716;2022-09-16T13:04:23;6.55;;;3.72;;
26163;SDS011;13914;48.178;11.716;2022-09-16T13:07:00;6.50;;;3.28;;
26163;SDS011;13914;48.178;11.716;2022-09-16T13:09:28;8.30;;;3.65;;
26163;SDS011;13914;48.178;11.716;2022-09-16T13:12:01;7.97;;;3.05;;
26163;SDS011;13914;48.178;11.716;2022-09-16T13:17:32;6.05;;;3.15;;
26163;SDS011;13914;48.178;11.716;2022-09-16T13:20:17;7.53;;;2.83;;
26163;SDS011;13914;48.178;11.716;2022-09-16T13:23:04;4.25;;;2.63;;
26163;SDS011;13914;48.178;11.716;2022-09-16T13:26:00;4.80;;;2.40;;
26163;SDS011;13914;48.178;11.716;2022-09-16T13:33:38;5.25;;;2.30;;
26163;SDS011;13914;48.178;11.716;2022-09-16T13:38:51;7.68;;;2.67;;
26163;SDS011;13914;48.178;11.716;2022-09-16T13:52:10;4.80;;;1.88;;
26163;SDS011;13914;48.178;11.716;2022-09-16T13:54:40;3.40;;;2.30;;
26163;SDS011;13914;48.178;11.716;2022-09-16T13:57:20;4.03;;;2.15;;
26163;SDS011;13914;48.178;11.716;2022-09-16T14:00:21;5.72;;;2.10;;
26163;SDS011;13914;48.178;11.716;2022-09-16T14:06:08;4.13;;;2.35;;
26163;SDS011;13914;48.178;11.716;2022-09-16T14:15:26;9.23;;;2.40;;
26163;SDS011;13914;48.178;11.716;2022-09-16T14:17:57;5.53;;;2.85;;
26163;SDS011;13914;48.178;11.716;2022-09-16T14:20:27;6.95;;;2.58;;
26163;SDS011;13914;48.178;11.716;2022-09-16T14:22:59;7.35;;;2.42;;
26163;SDS011;13914;48.178;11.716;2022-09-16T14:25:35;4.47;;;2.15;;
26163;SDS011;13914;48.178;11.716;2022-09-16T14:28:06;5.20;;;2.22;;
26163;SDS011;13914;48.178;11.716;2022-09-16T14:30:32;5.60;;;2.30;;
26163;SDS011;13914;48.178;11.716;2022-09-16T14:32:59;6.43;;;1.92;;
26163;SDS011;13914;48.178;11.716;2022-09-16T14:35:27;8.32;;;2.50;;
26163;SDS011;13914;48.178;11.716;2022-09-16T14:37:54;4.95;;;2.10;;
26163;SDS011;13914;48.178;11.716;2022-09-16T14:40:26;7.72;;;2.05;;
26163;SDS011;13914;48.178;11.716;2022-09-16T14:45:26;15.02;;;2.80;;
26163;SDS011;13914;48.178;11.716;2022-09-16T14:47:54;16.95;;;2.30;;
26163;SDS011;13914;48.178;11.716;2022-09-16T14:50:30;6.28;;;2.33;;
26163;SDS011;13914;48.178;11.716;2022-09-16T14:53:02;3.22;;;2.30;;
26163;SDS011;13914;48.178;11.716;2022-09-16T14:55:32;7.45;;;2.80;;
26163;SDS011;13914;48.178;11.716;2022-09-16T14:58:00;7.78;;;2.60;;
26163;SDS011;13914;48.178;11.716;2022-09-16T15:00:27;7.30;;;2.47;;
26163;SDS011;13914;48.178;11.716;2022-09-16T15:03:25;8.00;;;2.40;;
26163;SDS011;13914;48.178;11.716;2022-09-16T15:06:26;16.90;;;2.42;;
26163;SDS011;13914;48.178;11.716;2022-09-16T15:08:59;6.03;;;2.58;;
26163;SDS011;13914;48.178;11.716;2022-09-16T15:11:43;12.10;;;3.30;;
26163;SDS011;13914;48.178;11.716;2022-09-16T15:14:14;5.45;;;2.40;;
26163;SDS011;13914;48.178;11.716;2022-09-16T15:16:44;5.75;;;2.70;;
26163;SDS011;13914;48.178;11.716;2022-09-16T15:19:18;5.13;;;2.47;;
26163;SDS011;13914;48.178;11.716;2022-09-16T15:21:47;8.65;;;2.35;;
26163;SDS011;13914;48.178;11.716;2022-09-16T15:24:19;12.10;;;2.03;;
26163;SDS011;13914;48.178;11.716;2022-09-16T15:26:53;9.82;;;2.20;;
26163;SDS011;13914;48.178;11.716;2022-09-16T15:31:48;12.63;;;3.22;;
26163;SDS011;13914;48.178;11.716;2022-09-16T15:36:55;6.80;;;2.67;;
26163;SDS011;13914;48.178;11.716;2022-09-16T15:42:18;8.35;;;2.33;;
26163;SDS011;13914;48.178;11.716;2022-09-16T15:44:55;10.15;;;2.55;;
26163;SDS011;13914;48.178;11.716;2022-09-16T15:48:05;5.03;;;2.30;;
26163;SDS011;13914;48.178;11.716;2022-09-16T15:50:22;4.53;;;2.53;;
26163;SDS011;13914;48.178;11.716;2022-09-16T15:56:03;5.70;;;2.58;;
26163;SDS011;13914;48.178;11.716;2022-09-16T15:58:41;12.25;;;3.13;;
26163;SDS011;13914;48.178;11.716;2022-09-16T16:03:52;9.05;;;2.40;;
26163;SDS011;13914;48.178;11.716;2022-09-16T16:14:32;7.85;;;2.80;;
26163;SDS011;13914;48.178;11.716;2022-09-16T16:16:59;6.43;;;2.40;;
26163;SDS011;13914;48.178;11.716;2022-09-16T16:19:36;9.95;;;2.70;;
26163;SDS011;13914;48.178;11.716;2022-09-16T16:22:06;11.00;;;2.40;;
26163;SDS011;13914;48.178;11.716;2022-09-16T16:24:32;8.70;;;2.25;;
26163;SDS011;13914;48.178;11.716;2022-09-16T16:26:58;13.23;;;2.50;;
26163;SDS011;13914;48.178;11.716;2022-09-16T16:29:24;6.55;;;2.20;;
26163;SDS011;13914;48.178;11.716;2022-09-16T16:31:56;8.68;;;2.80;;
26163;SDS011;13914;48.178;11.716;2022-09-16T16:34:32;12.85;;;2.50;;
26163;SDS011;13914;48.178;11.716;2022-09-16T16:37:00;11.23;;;1.98;;
26163;SDS011;13914;48.178;11.716;2022-09-16T16:39:26;8.40;;;2.28;;
26163;SDS011;13914;48.178;11.716;2022-09-16T16:41:52;4.05;;;2.35;;
26163;SDS011;13914;48.178;11.716;2022-09-16T16:44:18;14.45;;;2.63;;
26163;SDS011;13914;48.178;11.716;2022-09-16T16:46:47;12.38;;;2.80;;
26163;SDS011;13914;48.178;11.716;2022-09-16T16:49:24;10.70;;;2.50;;
26163;SDS011;13914;48.178;11.716;2022-09-16T16:51:50;16.60;;;2.38;;
26163;SDS011;13914;48.178;11.716;2022-09-16T16:54:19;9.35;;;2.25;;
26163;SDS011;13914;48.178;11.716;2022-09-16T16:56:46;5.47;;;3.25;;
26163;SDS011;13914;48.178;11.716;2022-09-16T16:59:13;12.10;;;2.05;;
26163;SDS011;13914;48.178;11.716;2022-09-16T17:01:39;5.70;;;2.10;;
26163;SDS011;13914;48.178;11.716;2022-09-16T17:04:06;4.35;;;2.50;;
26163;SDS011;13914;48.178;11.716;2022-09-16T17:06:34;9.18;;;2.58;;
26163;SDS011;13914;48.178;11.716;2022-09-16T17:09:02;6.68;;;2.20;;
26163;SDS011;13914;48.178;11.716;2022-09-16T17:11:29;6.40;;;2.20;;
26163;SDS011;13914;48.178;11.716;2022-09-16T17:14:02;10.65;;;2.25;;
26163;SDS011;13914;48.178;11.716;2022-09-16T17:16:31;10.20;;;2.47;;
26163;SDS011;13914;48.178;11.716;2022-09-16T17:18:58;5.45;;;2.55;;
26163;SDS011;13914;48.178;11.716;2022-09-16T17:21:27;5.30;;;2.53;;
26163;SDS011;13914;48.178;11.716;2022-09-16T17:23:57;9.52;;;2.30;;
26163;SDS011;13914;48.178;11.716;2022-09-16T17:26:24;9.60;;;2.30;;
26163;SDS011;13914;48.178;11.716;2022-09-16T17:28:51;8.15;;;2.47;;
26163;SDS011;13914;48.178;11.716;2022-09-16T17:31:22;10.57;;;2.20;;
26163;SDS011;13914;48.178;11.716;2022-09-16T17:33:57;7.18;;;2.28;;
26163;SDS011;13914;48.178;11.716;2022-09-16T17:36:27;13.57;;;3.20;;
26163;SDS011;13914;48.178;11.716;2022-09-16T17:38:55;7.28;;;2.50;;
26163;SDS011;13914;48.178;11.716;2022-09-16T17:41:23;4.38;;;2.45;;
26163;SDS011;13914;48.178;11.716;2022-09-16T17:43:53;12.88;;;2.60;;
26163;SDS011;13914;48.178;11.716;2022-09-16T17:46:20;6.70;;;2.88;;
26163;SDS011;13914;48.178;11.716;2022-09-16T17:48:47;7.32;;;2.08;;
26163;SDS011;13914;48.178;11.716;2022-09-16T17:51:15;10.82;;;2.25;;
26163;SDS011;13914;48.178;11.716;2022-09-16T17:53:41;5.50;;;2.72;;
26163;SDS011;13914;48.178;11.716;2022-09-16T17:56:09;9.73;;;2.83;;
26163;SDS011;13914;48.178;11.716;2022-09-16T17:58:39;6.15;;;2.95;;
26163;SDS011;13914;48.178;11.716;2022-09-16T18:01:09;11.93;;;3.25;;
26163;SDS011;13914;48.178;11.716;2022-09-16T18:03:41;16.13;;;2.88;;
26163;SDS011;13914;48.178;11.716;2022-09-16T18:06:10;6.55;;;3.05;;
26163;SDS011;13914;48.178;11.716;2022-09-16T18:08:49;6.75;;;3.13;;
26163;SDS011;13914;48.178;11.716;2022-09-16T18:11:16;6.10;;;2.40;;
26163;SDS011;13914;48.178;11.716;2022-09-16T18:13:45;9.68;;;3.22;;
26163;SDS011;13914;48.178;11.716;2022-09-16T18:18:40;9.13;;;3.20;;
26163;SDS011;13914;48.178;11.716;2022-09-16T18:21:10;6.45;;;2.50;;
26163;SDS011;13914;48.178;11.716;2022-09-16T18:23:42;15.55;;;2.55;;
26163;SDS011;13914;48.178;11.716;2022-09-16T18:26:09;9.95;;;2.60;;
26163;SDS011;13914;48.178;11.716;2022-09-16T18:28:38;15.13;;;3.28;;